sensor_id;sensor_type;location;lat;lon;timestamp;temperature;humidity
10583;DHT22;33679;51.218;6.786;2023-11-21T00:01:27;13.30;99.90
10583;DHT22;33679;51.218;6.786;2023-11-21T00:03:59;13.30;99.90
10583;DHT22;33679;51.218;6.786;2023-11-21T00:06:32;13.40;99.90
10583;DHT22;33679;51.218;6.786;2023-11-21T00:09:05;13.30;99.90
10583;DHT22;33679;51.218;6.786;2023-11-21T00:11:41;13.30;99.90
10583;DHT22;33679;51.218;6.786;2023-11-21T00:14:14;13.30;99.90
10583;DHT22;33679;51.218;6.786;2023-11-21T00:16:46;13.30;99.90
10583;DHT22;33679;51.218;6.786;2023-11-21T00:19:19;13.40;99.90
10583;DHT22;33679;51.218;6.786;2023-11-21T00:21:51;13.40;99.90
10583;DHT22;33679;51.218;6.786;2023-11-21T00:24:23;13.40;99.90
10583;DHT22;33679;51.218;6.786;2023-11-21T00:27:00;13.30;99.90
10583;DHT22;33679;51.218;6.786;2023-11-21T00:29:32;13.30;99.90
10583;DHT22;33679;51.218;6.786;2023-11-21T00:32:07;13.40;99.90
10583;DHT22;33679;51.218;6.786;2023-11-21T00:34:42;13.30;99.90
10583;DHT22;33679;51.218;6.786;2023-11-21T00:37:15;13.30;99.90
10583;DHT22;33679;51.218;6.786;2023-11-21T00:39:49;13.20;99.90
10583;DHT22;33679;51.218;6.786;2023-11-21T00:42:22;13.20;99.90
10583;DHT22;33679;51.218;6.786;2023-11-21T00:44:55;13.10;99.90
10583;DHT22;33679;51.218;6.786;2023-11-21T00:47:29;13.20;99.90
10583;DHT22;33679;51.218;6.786;2023-11-21T00:50:01;13.20;99.90
10583;DHT22;33679;51.218;6.786;2023-11-21T00:52:34;13.10;99.90
10583;DHT22;33679;51.218;6.786;2023-11-21T00:55:08;13.10;99.90
10583;DHT22;33679;51.218;6.786;2023-11-21T00:57:42;13.00;99.90
10583;DHT22;33679;51.218;6.786;2023-11-21T01:00:15;13.00;99.90
10583;DHT22;33679;51.218;6.786;2023-11-21T01:02:48;13.00;99.90
10583;DHT22;33679;51.218;6.786;2023-11-21T01:05:21;13.00;99.90
10583;DHT22;33679;51.218;6.786;2023-11-21T01:07:53;13.10;99.90
10583;DHT22;33679;51.218;6.786;2023-11-21T01:10:26;13.10;99.90
10583;DHT22;33679;51.218;6.786;2023-11-21T01:13:00;13.10;99.90
10583;DHT22;33679;51.218;6.786;2023-11-21T01:15:33;13.10;99.90
10583;DHT22;33679;51.218;6.786;2023-11-21T01:18:06;13.10;99.90
10583;DHT22;33679;51.218;6.786;2023-11-21T01:20:41;13.10;99.90
10583;DHT22;33679;51.218;6.786;2023-11-21T01:23:15;13.10;99.90
10583;DHT22;33679;51.218;6.786;2023-11-21T01:25:47;13.00;99.90
10583;DHT22;33679;51.218;6.786;2023-11-21T01:28:21;13.00;99.90
10583;DHT22;33679;51.218;6.786;2023-11-21T01:30:54;13.00;99.90
10583;DHT22;33679;51.218;6.786;2023-11-21T01:33:27;13.00;99.90
10583;DHT22;33679;51.218;6.786;2023-11-21T01:35:59;12.90;99.90
10583;DHT22;33679;51.218;6.786;2023-11-21T01:38:32;12.90;99.90
10583;DHT22;33679;51.218;6.786;2023-11-21T01:41:05;12.80;99.90
10583;DHT22;33679;51.218;6.786;2023-11-21T01:43:41;12.80;99.90
10583;DHT22;33679;51.218;6.786;2023-11-21T01:46:15;12.80;99.90
10583;DHT22;33679;51.218;6.786;2023-11-21T01:48:49;12.80;99.90
10583;DHT22;33679;51.218;6.786;2023-11-21T01:51:23;12.80;99.90
10583;DHT22;33679;51.218;6.786;2023-11-21T01:53:58;12.80;99.90
10583;DHT22;33679;51.218;6.786;2023-11-21T01:56:30;12.80;99.90
10583;DHT22;33679;51.218;6.786;2023-11-21T01:59:04;12.80;99.90
10583;DHT22;33679;51.218;6.786;2023-11-21T02:01:37;12.90;99.90
10583;DHT22;33679;51.218;6.786;2023-11-21T02:04:10;12.90;99.90
10583;DHT22;33679;51.218;6.786;2023-11-21T02:06:42;12.90;99.90
10583;DHT22;33679;51.218;6.786;2023-11-21T02:09:15;13.00;99.90
10583;DHT22;33679;51.218;6.786;2023-11-21T02:11:48;13.00;99.90
10583;DHT22;33679;51.218;6.786;2023-11-21T02:14:22;13.00;99.90
10583;DHT22;33679;51.218;6.786;2023-11-21T02:16:56;13.00;99.90
10583;DHT22;33679;51.218;6.786;2023-11-21T02:19:31;13.00;99.90
10583;DHT22;33679;51.218;6.786;2023-11-21T02:22:07;13.00;99.90
10583;DHT22;33679;51.218;6.786;2023-11-21T02:24:42;13.00;99.90
10583;DHT22;33679;51.218;6.786;2023-11-21T02:27:14;13.10;99.90
10583;DHT22;33679;51.218;6.786;2023-11-21T02:29:52;13.10;99.90
10583;DHT22;33679;51.218;6.786;2023-11-21T02:32:25;13.10;99.90
10583;DHT22;33679;51.218;6.786;2023-11-21T02:34:57;13.10;99.90
10583;DHT22;33679;51.218;6.786;2023-11-21T02:37:32;13.10;99.90
10583;DHT22;33679;51.218;6.786;2023-11-21T02:40:08;13.10;99.90
10583;DHT22;33679;51.218;6.786;2023-11-21T02:42:41;13.10;99.90
10583;DHT22;33679;51.218;6.786;2023-11-21T02:45:13;13.00;99.90
10583;DHT22;33679;51.218;6.786;2023-11-21T02:47:48;13.00;99.90
10583;DHT22;33679;51.218;6.786;2023-11-21T02:50:21;13.00;99.90
10583;DHT22;33679;51.218;6.786;2023-11-21T02:52:54;13.00;99.90
10583;DHT22;33679;51.218;6.786;2023-11-21T02:55:29;13.00;99.90
10583;DHT22;33679;51.218;6.786;2023-11-21T02:58:05;13.00;99.90
10583;DHT22;33679;51.218;6.786;2023-11-21T03:00:38;13.00;99.90
10583;DHT22;33679;51.218;6.786;2023-11-21T03:03:11;13.10;99.90
10583;DHT22;33679;51.218;6.786;2023-11-21T03:05:49;13.10;99.90
10583;DHT22;33679;51.218;6.786;2023-11-21T03:08:24;13.10;99.90
10583;DHT22;33679;51.218;6.786;2023-11-21T03:10:58;13.10;99.90
10583;DHT22;33679;51.218;6.786;2023-11-21T03:13:30;13.20;99.90
10583;DHT22;33679;51.218;6.786;2023-11-21T03:16:03;13.20;99.90
10583;DHT22;33679;51.218;6.786;2023-11-21T03:18:35;13.30;99.90
10583;DHT22;33679;51.218;6.786;2023-11-21T03:21:09;13.30;99.90
10583;DHT22;33679;51.218;6.786;2023-11-21T03:23:42;13.30;99.90
10583;DHT22;33679;51.218;6.786;2023-11-21T03:26:16;13.30;99.90
10583;DHT22;33679;51.218;6.786;2023-11-21T03:28:49;13.30;99.90
10583;DHT22;33679;51.218;6.786;2023-11-21T03:31:24;13.30;99.90
10583;DHT22;33679;51.218;6.786;2023-11-21T03:33:57;13.30;99.90
10583;DHT22;33679;51.218;6.786;2023-11-21T03:36:29;13.40;99.90
10583;DHT22;33679;51.218;6.786;2023-11-21T03:39:01;13.30;99.90
10583;DHT22;33679;51.218;6.786;2023-11-21T03:41:35;13.40;99.90
10583;DHT22;33679;51.218;6.786;2023-11-21T03:44:07;13.30;99.90
10583;DHT22;33679;51.218;6.786;2023-11-21T03:46:42;13.40;99.90
10583;DHT22;33679;51.218;6.786;2023-11-21T03:49:16;13.40;99.90
10583;DHT22;33679;51.218;6.786;2023-11-21T03:51:48;13.40;99.90
10583;DHT22;33679;51.218;6.786;2023-11-21T03:54:20;13.30;99.90
10583;DHT22;33679;51.218;6.786;2023-11-21T03:56:54;13.30;99.90
10583;DHT22;33679;51.218;6.786;2023-11-21T03:59:27;13.30;99.90
10583;DHT22;33679;51.218;6.786;2023-11-21T04:01:59;13.30;99.90
10583;DHT22;33679;51.218;6.786;2023-11-21T04:04:31;13.20;99.90
10583;DHT22;33679;51.218;6.786;2023-11-21T04:07:04;13.20;99.90
10583;DHT22;33679;51.218;6.786;2023-11-21T04:09:37;13.20;99.90
10583;DHT22;33679;51.218;6.786;2023-11-21T04:12:11;13.30;99.90
10583;DHT22;33679;51.218;6.786;2023-11-21T04:14:43;13.20;99.90
10583;DHT22;33679;51.218;6.786;2023-11-21T04:17:18;13.20;99.90
10583;DHT22;33679;51.218;6.786;2023-11-21T04:19:50;13.20;99.90
10583;DHT22;33679;51.218;6.786;2023-11-21T04:22:23;13.10;99.90
10583;DHT22;33679;51.218;6.786;2023-11-21T04:24:55;13.10;99.90
10583;DHT22;33679;51.218;6.786;2023-11-21T04:27:29;13.10;99.90
10583;DHT22;33679;51.218;6.786;2023-11-21T04:30:01;13.00;99.90
10583;DHT22;33679;51.218;6.786;2023-11-21T04:32:34;13.00;99.90
10583;DHT22;33679;51.218;6.786;2023-11-21T04:35:07;13.00;99.90
10583;DHT22;33679;51.218;6.786;2023-11-21T04:37:39;13.00;99.90
10583;DHT22;33679;51.218;6.786;2023-11-21T04:40:12;13.00;99.90
10583;DHT22;33679;51.218;6.786;2023-11-21T04:42:45;13.00;99.90
10583;DHT22;33679;51.218;6.786;2023-11-21T04:45:18;13.00;99.90
10583;DHT22;33679;51.218;6.786;2023-11-21T04:47:50;13.10;99.90
10583;DHT22;33679;51.218;6.786;2023-11-21T04:50:23;13.10;99.90
10583;DHT22;33679;51.218;6.786;2023-11-21T04:52:57;13.00;99.90
10583;DHT22;33679;51.218;6.786;2023-11-21T04:55:29;13.00;99.90
10583;DHT22;33679;51.218;6.786;2023-11-21T04:58:03;13.00;99.90
10583;DHT22;33679;51.218;6.786;2023-11-21T05:00:35;13.00;99.90
10583;DHT22;33679;51.218;6.786;2023-11-21T05:03:09;13.10;99.90
10583;DHT22;33679;51.218;6.786;2023-11-21T05:05:41;13.10;99.90
10583;DHT22;33679;51.218;6.786;2023-11-21T05:08:13;13.10;99.90
10583;DHT22;33679;51.218;6.786;2023-11-21T05:10:46;13.10;99.90
10583;DHT22;33679;51.218;6.786;2023-11-21T05:13:20;13.10;99.90
10583;DHT22;33679;51.218;6.786;2023-11-21T05:15:52;13.10;99.90
10583;DHT22;33679;51.218;6.786;2023-11-21T05:18:25;13.10;99.90
10583;DHT22;33679;51.218;6.786;2023-11-21T05:20:58;13.10;99.90
10583;DHT22;33679;51.218;6.786;2023-11-21T05:23:30;13.10;99.90
10583;DHT22;33679;51.218;6.786;2023-11-21T05:26:02;13.20;99.90
10583;DHT22;33679;51.218;6.786;2023-11-21T05:28:36;13.20;99.90
10583;DHT22;33679;51.218;6.786;2023-11-21T05:31:08;13.20;99.90
10583;DHT22;33679;51.218;6.786;2023-11-21T05:33:42;13.20;99.90
10583;DHT22;33679;51.218;6.786;2023-11-21T05:36:14;13.20;99.90
10583;DHT22;33679;51.218;6.786;2023-11-21T05:38:46;13.20;99.90
10583;DHT22;33679;51.218;6.786;2023-11-21T05:41:18;13.10;99.90
10583;DHT22;33679;51.218;6.786;2023-11-21T05:43:52;13.10;99.90
10583;DHT22;33679;51.218;6.786;2023-11-21T05:46:24;13.10;99.90
10583;DHT22;33679;51.218;6.786;2023-11-21T05:48:57;13.10;99.90
10583;DHT22;33679;51.218;6.786;2023-11-21T05:51:30;13.10;99.90
10583;DHT22;33679;51.218;6.786;2023-11-21T05:54:02;13.20;99.90
10583;DHT22;33679;51.218;6.786;2023-11-21T05:56:35;13.10;99.90
10583;DHT22;33679;51.218;6.786;2023-11-21T05:59:09;13.20;99.90
10583;DHT22;33679;51.218;6.786;2023-11-21T06:01:41;13.20;99.90
10583;DHT22;33679;51.218;6.786;2023-11-21T06:04:14;13.20;99.90
10583;DHT22;33679;51.218;6.786;2023-11-21T06:06:46;13.20;99.90
10583;DHT22;33679;51.218;6.786;2023-11-21T06:09:18;13.10;99.90
10583;DHT22;33679;51.218;6.786;2023-11-21T06:11:51;13.10;99.90
10583;DHT22;33679;51.218;6.786;2023-11-21T06:14:25;13.10;99.90
10583;DHT22;33679;51.218;6.786;2023-11-21T06:16:57;13.10;99.90
10583;DHT22;33679;51.218;6.786;2023-11-21T06:19:29;13.10;99.90
10583;DHT22;33679;51.218;6.786;2023-11-21T06:22:02;13.10;99.90
10583;DHT22;33679;51.218;6.786;2023-11-21T06:24:34;13.10;99.90
10583;DHT22;33679;51.218;6.786;2023-11-21T06:27:07;13.10;99.90
10583;DHT22;33679;51.218;6.786;2023-11-21T06:29:43;13.10;99.90
10583;DHT22;33679;51.218;6.786;2023-11-21T06:32:15;13.10;99.90
10583;DHT22;33679;51.218;6.786;2023-11-21T06:34:48;13.00;99.90
10583;DHT22;33679;51.218;6.786;2023-11-21T06:37:20;13.00;99.90
10583;DHT22;33679;51.218;6.786;2023-11-21T06:39:54;13.00;99.90
10583;DHT22;33679;51.218;6.786;2023-11-21T06:42:28;13.10;99.90
10583;DHT22;33679;51.218;6.786;2023-11-21T06:45:02;13.00;99.90
10583;DHT22;33679;51.218;6.786;2023-11-21T06:47:35;13.00;99.90
10583;DHT22;33679;51.218;6.786;2023-11-21T06:50:09;12.90;99.90
10583;DHT22;33679;51.218;6.786;2023-11-21T06:52:41;12.90;99.90
10583;DHT22;33679;51.218;6.786;2023-11-21T06:55:14;12.90;99.90
10583;DHT22;33679;51.218;6.786;2023-11-21T06:57:47;12.90;99.90
10583;DHT22;33679;51.218;6.786;2023-11-21T07:00:21;12.80;99.90
10583;DHT22;33679;51.218;6.786;2023-11-21T07:02:55;12.80;99.90
10583;DHT22;33679;51.218;6.786;2023-11-21T07:05:30;12.80;99.90
10583;DHT22;33679;51.218;6.786;2023-11-21T07:08:02;12.70;99.90
10583;DHT22;33679;51.218;6.786;2023-11-21T07:10:35;12.80;99.90
10583;DHT22;33679;51.218;6.786;2023-11-21T07:13:08;12.80;99.90
10583;DHT22;33679;51.218;6.786;2023-11-21T07:15:44;12.80;99.90
10583;DHT22;33679;51.218;6.786;2023-11-21T07:18:17;12.70;99.90
10583;DHT22;33679;51.218;6.786;2023-11-21T07:20:49;12.70;99.90
10583;DHT22;33679;51.218;6.786;2023-11-21T07:23:24;12.70;99.90
10583;DHT22;33679;51.218;6.786;2023-11-21T07:25:56;12.70;99.90
10583;DHT22;33679;51.218;6.786;2023-11-21T07:28:29;12.70;99.90
10583;DHT22;33679;51.218;6.786;2023-11-21T07:31:05;12.70;99.90
10583;DHT22;33679;51.218;6.786;2023-11-21T07:33:38;12.70;99.90
10583;DHT22;33679;51.218;6.786;2023-11-21T07:36:10;12.70;99.90
10583;DHT22;33679;51.218;6.786;2023-11-21T07:38:42;12.70;99.90
10583;DHT22;33679;51.218;6.786;2023-11-21T07:41:16;12.60;99.90
10583;DHT22;33679;51.218;6.786;2023-11-21T07:43:49;12.70;99.90
10583;DHT22;33679;51.218;6.786;2023-11-21T07:46:22;12.70;99.90
10583;DHT22;33679;51.218;6.786;2023-11-21T07:48:57;12.80;99.90
10583;DHT22;33679;51.218;6.786;2023-11-21T07:51:29;12.80;99.90
10583;DHT22;33679;51.218;6.786;2023-11-21T07:54:03;12.90;99.90
10583;DHT22;33679;51.218;6.786;2023-11-21T07:56:38;12.90;99.90
10583;DHT22;33679;51.218;6.786;2023-11-21T07:59:12;12.90;99.90
10583;DHT22;33679;51.218;6.786;2023-11-21T08:01:46;12.90;99.90
10583;DHT22;33679;51.218;6.786;2023-11-21T08:04:18;12.90;99.90
10583;DHT22;33679;51.218;6.786;2023-11-21T08:06:51;13.00;99.90
10583;DHT22;33679;51.218;6.786;2023-11-21T08:09:23;12.90;99.90
10583;DHT22;33679;51.218;6.786;2023-11-21T08:11:56;12.90;99.90
10583;DHT22;33679;51.218;6.786;2023-11-21T08:14:28;12.90;99.90
10583;DHT22;33679;51.218;6.786;2023-11-21T08:17:05;12.90;99.90
10583;DHT22;33679;51.218;6.786;2023-11-21T08:19:37;12.90;99.90
10583;DHT22;33679;51.218;6.786;2023-11-21T08:22:09;13.00;99.90
10583;DHT22;33679;51.218;6.786;2023-11-21T08:24:42;13.00;99.90
10583;DHT22;33679;51.218;6.786;2023-11-21T08:27:14;13.00;99.90
10583;DHT22;33679;51.218;6.786;2023-11-21T08:29:49;12.90;99.90
10583;DHT22;33679;51.218;6.786;2023-11-21T08:32:24;13.00;99.90
10583;DHT22;33679;51.218;6.786;2023-11-21T08:34:56;13.00;99.90
10583;DHT22;33679;51.218;6.786;2023-11-21T08:37:29;12.90;99.90
10583;DHT22;33679;51.218;6.786;2023-11-21T08:40:04;12.90;99.90
10583;DHT22;33679;51.218;6.786;2023-11-21T08:42:40;13.00;99.90
10583;DHT22;33679;51.218;6.786;2023-11-21T08:45:12;13.10;99.90
10583;DHT22;33679;51.218;6.786;2023-11-21T08:47:46;13.10;99.90
10583;DHT22;33679;51.218;6.786;2023-11-21T08:50:18;13.20;99.90
10583;DHT22;33679;51.218;6.786;2023-11-21T08:52:51;13.20;99.90
10583;DHT22;33679;51.218;6.786;2023-11-21T08:55:23;13.10;99.90
10583;DHT22;33679;51.218;6.786;2023-11-21T08:57:57;13.20;99.90
10583;DHT22;33679;51.218;6.786;2023-11-21T09:00:30;13.20;99.90
10583;DHT22;33679;51.218;6.786;2023-11-21T09:03:04;13.30;99.90
10583;DHT22;33679;51.218;6.786;2023-11-21T09:05:41;13.30;99.90
10583;DHT22;33679;51.218;6.786;2023-11-21T09:08:14;13.30;99.90
10583;DHT22;33679;51.218;6.786;2023-11-21T09:10:46;13.30;99.90
10583;DHT22;33679;51.218;6.786;2023-11-21T09:13:18;13.30;99.90
10583;DHT22;33679;51.218;6.786;2023-11-21T09:15:50;13.30;99.90
10583;DHT22;33679;51.218;6.786;2023-11-21T09:18:24;13.40;99.90
10583;DHT22;33679;51.218;6.786;2023-11-21T09:20:56;13.50;99.90
10583;DHT22;33679;51.218;6.786;2023-11-21T09:23:29;13.50;99.90
10583;DHT22;33679;51.218;6.786;2023-11-21T09:26:01;13.50;99.90
10583;DHT22;33679;51.218;6.786;2023-11-21T09:28:33;13.50;99.90
10583;DHT22;33679;51.218;6.786;2023-11-21T09:31:08;13.50;99.90
10583;DHT22;33679;51.218;6.786;2023-11-21T09:33:44;13.50;99.90
10583;DHT22;33679;51.218;6.786;2023-11-21T09:36:16;13.60;99.90
10583;DHT22;33679;51.218;6.786;2023-11-21T09:38:49;13.50;99.90
10583;DHT22;33679;51.218;6.786;2023-11-21T09:41:31;13.50;99.90
10583;DHT22;33679;51.218;6.786;2023-11-21T09:44:09;13.50;99.90
10583;DHT22;33679;51.218;6.786;2023-11-21T09:46:48;13.50;99.90
10583;DHT22;33679;51.218;6.786;2023-11-21T09:49:24;13.40;99.90
10583;DHT22;33679;51.218;6.786;2023-11-21T09:51:57;13.40;99.90
10583;DHT22;33679;51.218;6.786;2023-11-21T09:54:34;13.40;99.90
10583;DHT22;33679;51.218;6.786;2023-11-21T09:57:08;13.40;99.90
10583;DHT22;33679;51.218;6.786;2023-11-21T09:59:41;13.30;99.90
10583;DHT22;33679;51.218;6.786;2023-11-21T10:02:17;13.30;99.90
10583;DHT22;33679;51.218;6.786;2023-11-21T10:04:54;13.40;99.90
10583;DHT22;33679;51.218;6.786;2023-11-21T10:07:29;13.40;99.90
10583;DHT22;33679;51.218;6.786;2023-11-21T10:10:05;13.40;99.90
10583;DHT22;33679;51.218;6.786;2023-11-21T10:12:37;13.30;99.90
10583;DHT22;33679;51.218;6.786;2023-11-21T10:15:11;13.30;99.90
10583;DHT22;33679;51.218;6.786;2023-11-21T10:17:49;13.40;99.90
10583;DHT22;33679;51.218;6.786;2023-11-21T10:20:23;13.40;99.90
10583;DHT22;33679;51.218;6.786;2023-11-21T10:22:56;13.50;99.90
10583;DHT22;33679;51.218;6.786;2023-11-21T10:25:29;13.50;99.90
10583;DHT22;33679;51.218;6.786;2023-11-21T10:28:02;13.60;99.90
10583;DHT22;33679;51.218;6.786;2023-11-21T10:30:38;13.60;99.90
10583;DHT22;33679;51.218;6.786;2023-11-21T10:33:12;13.60;99.90
10583;DHT22;33679;51.218;6.786;2023-11-21T10:35:48;13.70;99.90
10583;DHT22;33679;51.218;6.786;2023-11-21T10:38:21;13.70;99.90
10583;DHT22;33679;51.218;6.786;2023-11-21T10:40:55;13.70;99.90
10583;DHT22;33679;51.218;6.786;2023-11-21T10:43:28;13.80;99.90
10583;DHT22;33679;51.218;6.786;2023-11-21T10:46:00;13.80;99.90
10583;DHT22;33679;51.218;6.786;2023-11-21T10:48:33;13.90;99.90
10583;DHT22;33679;51.218;6.786;2023-11-21T10:51:08;13.90;99.90
10583;DHT22;33679;51.218;6.786;2023-11-21T10:53:42;13.80;99.90
10583;DHT22;33679;51.218;6.786;2023-11-21T10:56:18;13.80;99.90
10583;DHT22;33679;51.218;6.786;2023-11-21T10:58:52;13.70;99.90
10583;DHT22;33679;51.218;6.786;2023-11-21T11:01:27;13.70;99.90
10583;DHT22;33679;51.218;6.786;2023-11-21T11:04:04;13.70;99.90
10583;DHT22;33679;51.218;6.786;2023-11-21T11:06:42;13.70;99.90
10583;DHT22;33679;51.218;6.786;2023-11-21T11:09:18;13.60;99.90
10583;DHT22;33679;51.218;6.786;2023-11-21T11:11:51;13.60;99.90
10583;DHT22;33679;51.218;6.786;2023-11-21T11:14:26;13.60;99.90
10583;DHT22;33679;51.218;6.786;2023-11-21T11:16:59;13.60;99.90
10583;DHT22;33679;51.218;6.786;2023-11-21T11:19:33;13.60;99.90
10583;DHT22;33679;51.218;6.786;2023-11-21T11:22:15;13.60;99.90
10583;DHT22;33679;51.218;6.786;2023-11-21T11:25:19;13.60;99.90
10583;DHT22;33679;51.218;6.786;2023-11-21T11:28:01;13.60;99.90
10583;DHT22;33679;51.218;6.786;2023-11-21T11:30:45;13.50;99.90
10583;DHT22;33679;51.218;6.786;2023-11-21T11:33:25;13.60;99.90
10583;DHT22;33679;51.218;6.786;2023-11-21T11:36:06;13.60;99.90
10583;DHT22;33679;51.218;6.786;2023-11-21T11:38:46;13.50;99.90
10583;DHT22;33679;51.218;6.786;2023-11-21T11:41:25;13.60;99.90
10583;DHT22;33679;51.218;6.786;2023-11-21T11:43:58;13.60;99.90
10583;DHT22;33679;51.218;6.786;2023-11-21T11:46:43;13.60;99.90
10583;DHT22;33679;51.218;6.786;2023-11-21T11:49:24;13.70;99.90
10583;DHT22;33679;51.218;6.786;2023-11-21T11:55:09;13.70;99.90
10583;DHT22;33679;51.218;6.786;2023-11-21T11:57:46;13.80;99.90
10583;DHT22;33679;51.218;6.786;2023-11-21T12:00:21;13.80;99.90
10583;DHT22;33679;51.218;6.786;2023-11-21T12:03:00;13.90;99.90
10583;DHT22;33679;51.218;6.786;2023-11-21T12:05:35;13.90;99.90
10583;DHT22;33679;51.218;6.786;2023-11-21T12:08:11;14.00;99.90
10583;DHT22;33679;51.218;6.786;2023-11-21T12:10:45;14.10;99.90
10583;DHT22;33679;51.218;6.786;2023-11-21T12:13:19;14.20;99.90
10583;DHT22;33679;51.218;6.786;2023-11-21T12:15:52;14.30;99.90
10583;DHT22;33679;51.218;6.786;2023-11-21T12:18:25;14.40;99.90
10583;DHT22;33679;51.218;6.786;2023-11-21T12:20:59;14.40;99.90
10583;DHT22;33679;51.218;6.786;2023-11-21T12:23:32;14.50;99.90
10583;DHT22;33679;51.218;6.786;2023-11-21T12:26:07;14.50;99.90
10583;DHT22;33679;51.218;6.786;2023-11-21T12:28:39;14.60;99.90
10583;DHT22;33679;51.218;6.786;2023-11-21T12:31:12;14.60;99.90
10583;DHT22;33679;51.218;6.786;2023-11-21T12:33:45;14.60;99.90
10583;DHT22;33679;51.218;6.786;2023-11-21T12:36:17;14.60;99.90
10583;DHT22;33679;51.218;6.786;2023-11-21T12:38:50;14.60;99.90
10583;DHT22;33679;51.218;6.786;2023-11-21T12:41:24;14.60;99.90
10583;DHT22;33679;51.218;6.786;2023-11-21T12:43:56;14.60;99.90
10583;DHT22;33679;51.218;6.786;2023-11-21T12:46:29;14.60;99.90
10583;DHT22;33679;51.218;6.786;2023-11-21T12:49:04;14.60;99.90
10583;DHT22;33679;51.218;6.786;2023-11-21T12:51:37;14.60;99.90
10583;DHT22;33679;51.218;6.786;2023-11-21T12:54:09;14.60;99.90
10583;DHT22;33679;51.218;6.786;2023-11-21T12:56:47;14.50;99.90
10583;DHT22;33679;51.218;6.786;2023-11-21T12:59:24;14.60;99.90
10583;DHT22;33679;51.218;6.786;2023-11-21T13:01:58;14.50;99.90
10583;DHT22;33679;51.218;6.786;2023-11-21T13:04:35;14.60;99.90
10583;DHT22;33679;51.218;6.786;2023-11-21T13:07:08;14.50;99.90
10583;DHT22;33679;51.218;6.786;2023-11-21T13:09:52;14.50;99.90
10583;DHT22;33679;51.218;6.786;2023-11-21T13:12:27;14.50;99.90
10583;DHT22;33679;51.218;6.786;2023-11-21T13:15:03;14.60;99.90
10583;DHT22;33679;51.218;6.786;2023-11-21T13:17:37;14.60;99.90
10583;DHT22;33679;51.218;6.786;2023-11-21T13:20:11;14.60;99.90
10583;DHT22;33679;51.218;6.786;2023-11-21T13:22:50;14.60;99.90
10583;DHT22;33679;51.218;6.786;2023-11-21T13:25:25;14.50;99.90
10583;DHT22;33679;51.218;6.786;2023-11-21T13:28:00;14.60;99.90
10583;DHT22;33679;51.218;6.786;2023-11-21T13:30:33;14.50;99.90
10583;DHT22;33679;51.218;6.786;2023-11-21T13:33:08;14.40;99.90
10583;DHT22;33679;51.218;6.786;2023-11-21T13:35:49;14.40;99.90
10583;DHT22;33679;51.218;6.786;2023-11-21T13:38:23;14.40;99.90
10583;DHT22;33679;51.218;6.786;2023-11-21T13:40:58;14.40;99.90
10583;DHT22;33679;51.218;6.786;2023-11-21T13:43:32;14.30;99.90
10583;DHT22;33679;51.218;6.786;2023-11-21T13:46:05;14.20;99.90
10583;DHT22;33679;51.218;6.786;2023-11-21T13:48:44;14.20;99.90
10583;DHT22;33679;51.218;6.786;2023-11-21T13:51:22;14.30;99.90
10583;DHT22;33679;51.218;6.786;2023-11-21T13:54:04;14.30;99.90
10583;DHT22;33679;51.218;6.786;2023-11-21T13:56:41;14.30;99.90
10583;DHT22;33679;51.218;6.786;2023-11-21T13:59:16;14.40;99.90
10583;DHT22;33679;51.218;6.786;2023-11-21T14:01:57;14.30;99.90
10583;DHT22;33679;51.218;6.786;2023-11-21T14:04:30;14.40;99.90
10583;DHT22;33679;51.218;6.786;2023-11-21T14:07:34;14.30;99.90
10583;DHT22;33679;51.218;6.786;2023-11-21T14:10:10;14.30;99.90
10583;DHT22;33679;51.218;6.786;2023-11-21T14:12:45;14.30;99.90
10583;DHT22;33679;51.218;6.786;2023-11-21T14:15:19;14.20;99.90
10583;DHT22;33679;51.218;6.786;2023-11-21T14:17:51;14.30;99.90
10583;DHT22;33679;51.218;6.786;2023-11-21T14:20:23;14.20;99.90
10583;DHT22;33679;51.218;6.786;2023-11-21T14:22:56;14.20;99.90
10583;DHT22;33679;51.218;6.786;2023-11-21T14:25:28;14.20;99.90
10583;DHT22;33679;51.218;6.786;2023-11-21T14:28:03;14.10;99.90
10583;DHT22;33679;51.218;6.786;2023-11-21T14:30:45;14.10;99.90
10583;DHT22;33679;51.218;6.786;2023-11-21T14:33:17;14.00;99.90
10583;DHT22;33679;51.218;6.786;2023-11-21T14:35:51;14.00;99.90
10583;DHT22;33679;51.218;6.786;2023-11-21T14:38:23;13.90;99.90
10583;DHT22;33679;51.218;6.786;2023-11-21T14:40:59;14.00;99.90
10583;DHT22;33679;51.218;6.786;2023-11-21T14:43:31;13.90;99.90
10583;DHT22;33679;51.218;6.786;2023-11-21T14:46:07;13.90;99.90
10583;DHT22;33679;51.218;6.786;2023-11-21T14:48:40;13.80;99.90
10583;DHT22;33679;51.218;6.786;2023-11-21T14:51:13;13.80;99.90
10583;DHT22;33679;51.218;6.786;2023-11-21T14:54:01;13.80;99.90
10583;DHT22;33679;51.218;6.786;2023-11-21T14:56:37;13.70;99.90
10583;DHT22;33679;51.218;6.786;2023-11-21T14:59:09;13.70;99.90
10583;DHT22;33679;51.218;6.786;2023-11-21T15:01:48;13.70;99.90
10583;DHT22;33679;51.218;6.786;2023-11-21T15:04:26;13.70;99.90
10583;DHT22;33679;51.218;6.786;2023-11-21T15:07:06;13.70;99.90
10583;DHT22;33679;51.218;6.786;2023-11-21T15:09:38;13.70;99.90
10583;DHT22;33679;51.218;6.786;2023-11-21T15:12:13;13.70;99.90
10583;DHT22;33679;51.218;6.786;2023-11-21T15:14:48;13.60;99.90
10583;DHT22;33679;51.218;6.786;2023-11-21T15:17:26;13.60;99.90
10583;DHT22;33679;51.218;6.786;2023-11-21T15:20:03;13.50;99.90
10583;DHT22;33679;51.218;6.786;2023-11-21T15:22:39;13.50;99.90
10583;DHT22;33679;51.218;6.786;2023-11-21T15:25:12;13.50;99.90
10583;DHT22;33679;51.218;6.786;2023-11-21T15:27:44;13.50;99.90
10583;DHT22;33679;51.218;6.786;2023-11-21T15:30:18;13.50;99.90
10583;DHT22;33679;51.218;6.786;2023-11-21T15:32:57;13.50;99.90
10583;DHT22;33679;51.218;6.786;2023-11-21T15:35:35;13.50;99.90
10583;DHT22;33679;51.218;6.786;2023-11-21T15:38:14;13.60;99.90
10583;DHT22;33679;51.218;6.786;2023-11-21T15:40:48;13.60;99.90
10583;DHT22;33679;51.218;6.786;2023-11-21T15:43:22;13.50;99.90
10583;DHT22;33679;51.218;6.786;2023-11-21T15:45:55;13.40;99.90
10583;DHT22;33679;51.218;6.786;2023-11-21T15:48:32;13.40;99.90
10583;DHT22;33679;51.218;6.786;2023-11-21T15:51:06;13.40;99.90
10583;DHT22;33679;51.218;6.786;2023-11-21T15:53:43;13.40;99.90
10583;DHT22;33679;51.218;6.786;2023-11-21T15:56:17;13.40;99.90
10583;DHT22;33679;51.218;6.786;2023-11-21T15:58:52;13.30;99.90
10583;DHT22;33679;51.218;6.786;2023-11-21T16:01:24;13.30;99.90
10583;DHT22;33679;51.218;6.786;2023-11-21T16:03:58;13.20;99.90
10583;DHT22;33679;51.218;6.786;2023-11-21T16:06:32;13.20;99.90
10583;DHT22;33679;51.218;6.786;2023-11-21T16:09:10;13.10;99.90
10583;DHT22;33679;51.218;6.786;2023-11-21T16:11:52;13.10;99.90
10583;DHT22;33679;51.218;6.786;2023-11-21T16:14:32;13.00;99.90
10583;DHT22;33679;51.218;6.786;2023-11-21T16:17:09;13.00;99.90